createdAt,value
2019-05-21T00:00:53.598Z,94519.53
2019-05-21T00:03:24.018Z,94513.62
2019-05-21T00:05:54.656Z,94517.27
2019-05-21T00:08:26.934Z,94514.41
2019-05-21T00:10:57.391Z,94513.61
2019-05-21T00:13:28.247Z,94517.09
2019-05-21T00:16:10.069Z,94506.11
2019-05-21T00:18:42.602Z,94509.04
2019-05-21T00:21:13.095Z,94515.81
2019-05-21T00:23:43.502Z,94511.55
2019-05-21T00:26:13.927Z,94518.36
2019-05-21T00:29:21.325Z,94517.88
2019-05-21T00:32:27.524Z,94515.98
2019-05-21T00:35:53.028Z,94524.09
2019-05-21T00:38:59.422Z,94520.08
2019-05-21T00:42:02.471Z,94515.98
2019-05-21T00:44:35.314Z,94516.53
2019-05-21T00:47:06.896Z,94519.77
2019-05-21T00:49:37.396Z,94521.04
2019-05-21T00:52:09.217Z,94528.75
2019-05-21T00:54:40.025Z,94529.55
2019-05-21T00:57:25.130Z,94528.20
2019-05-21T00:59:56.085Z,94531.44
2019-05-21T01:02:26.535Z,94531.59
2019-05-21T01:05:00.692Z,94536.11
2019-05-21T01:07:29.739Z,94534.77
2019-05-21T01:10:01.521Z,94535.80
2019-05-21T01:12:32.264Z,94535.14
2019-05-21T01:15:02.747Z,94537.68
2019-05-21T01:17:33.145Z,94536.55
2019-05-21T01:20:03.722Z,94533.10
2019-05-21T01:22:34.111Z,94536.00
2019-05-21T01:25:17.890Z,94538.69
2019-05-21T01:27:48.401Z,94541.70
2019-05-21T01:30:18.883Z,94542.32
2019-05-21T01:32:49.299Z,94537.50
2019-05-21T01:35:19.742Z,94541.05
2019-05-21T01:37:50.177Z,94543.17
2019-05-21T01:40:29.186Z,94548.78
2019-05-21T01:43:02.811Z,94546.65
2019-05-21T01:45:31.735Z,94547.69
2019-05-21T01:48:02.180Z,94550.37
2019-05-21T01:50:32.678Z,94557.94
2019-05-21T01:53:03.561Z,94557.30
2019-05-21T01:55:34.045Z,94555.41
2019-05-21T01:58:04.613Z,94559.09
2019-05-21T02:00:35.127Z,94554.86
2019-05-21T02:03:05.577Z,94554.06
2019-05-21T02:05:36.097Z,94556.75
2019-05-21T02:08:12.966Z,94557.06
2019-05-21T02:10:43.364Z,94557.30
2019-05-21T02:13:14.303Z,94558.64
2019-05-21T02:15:44.767Z,94555.95
2019-05-21T02:18:15.274Z,94553.89
2019-05-21T02:20:46.177Z,94557.49
2019-05-21T02:23:16.620Z,94559.47
2019-05-21T02:25:47.109Z,94553.69
2019-05-21T02:28:17.537Z,94545.16
2019-05-21T02:30:47.973Z,94550.06
2019-05-21T02:33:26.803Z,94545.86
2019-05-21T02:35:58.234Z,94549.95
2019-05-21T02:38:28.656Z,94551.59
2019-05-21T02:40:59.126Z,94554.73
2019-05-21T02:43:29.762Z,94554.64
2019-05-21T02:46:00.248Z,94554.76
2019-05-21T02:48:30.737Z,94548.52
2019-05-21T02:51:01.218Z,94543.66
2019-05-21T02:53:34.373Z,94544.94
2019-05-21T02:56:03.800Z,94545.30
2019-05-21T02:58:35.592Z,94547.81
2019-05-21T03:01:25.578Z,94543.61
2019-05-21T03:03:56.290Z,94542.41
2019-05-21T03:06:27.822Z,94543.67
2019-05-21T03:08:58.789Z,94542.83
2019-05-21T03:11:29.195Z,94547.53
2019-05-21T03:14:00.997Z,94552.78
2019-05-21T03:16:31.478Z,94548.92
2019-05-21T03:19:01.896Z,94551.19
2019-05-21T03:21:32.362Z,94549.91
2019-05-21T03:24:02.779Z,94554.77
2019-05-21T03:26:33.258Z,94554.16
2019-05-21T03:29:04.960Z,94557.27
2019-05-21T03:31:35.407Z,94551.30
2019-05-21T03:34:08.893Z,94550.60
2019-05-21T03:36:39.310Z,94550.73
2019-05-21T03:39:09.740Z,94558.38
2019-05-21T03:41:40.214Z,94561.23
2019-05-21T03:44:10.908Z,94557.46
2019-05-21T03:46:41.395Z,94564.50
2019-05-21T03:49:14.556Z,94566.23
2019-05-21T03:51:45.004Z,94569.41
2019-05-21T03:54:15.570Z,94569.63
2019-05-21T03:57:04.054Z,94570.59
2019-05-21T03:59:34.554Z,94574.06
2019-05-21T04:02:05.024Z,94576.14
2019-05-21T04:04:36.022Z,94566.78
2019-05-21T04:07:08.297Z,94561.38
2019-05-21T04:09:41.121Z,94567.50
2019-05-21T04:12:11.719Z,94572.55
2019-05-21T04:14:46.445Z,94571.63
2019-05-21T04:17:34.616Z,94578.08
2019-05-21T04:20:07.122Z,94586.64
2019-05-21T04:22:40.437Z,94589.48
2019-05-21T04:25:13.592Z,94587.89
2019-05-21T04:27:46.810Z,94587.84
2019-05-21T04:30:17.221Z,94599.06
2019-05-21T04:32:47.838Z,94603.89
2019-05-21T04:35:18.713Z,94602.42
2019-05-21T04:37:53.877Z,94600.11
2019-05-21T04:40:24.303Z,94598.42
2019-05-21T04:42:54.783Z,94599.57
2019-05-21T04:45:25.166Z,94601.95
2019-05-21T04:47:55.588Z,94604.73
2019-05-21T04:50:26.052Z,94602.61
2019-05-21T04:52:58.009Z,94605.58
2019-05-21T04:55:28.400Z,94602.63
2019-05-21T04:57:58.865Z,94601.02
2019-05-21T05:00:29.557Z,94603.73
2019-05-21T05:03:00.024Z,94608.16
2019-05-21T05:05:30.744Z,94608.83
2019-05-21T05:08:02.301Z,94612.87
2019-05-21T05:10:32.872Z,94620.09
2019-05-21T05:13:04.696Z,94627.13
2019-05-21T05:15:36.218Z,94632.14
2019-05-21T05:18:06.693Z,94638.23
2019-05-21T05:20:37.151Z,94640.47
2019-05-21T05:23:07.672Z,94645.06
2019-05-21T05:25:38.441Z,94644.42
2019-05-21T05:28:09.375Z,94648.28
2019-05-21T05:30:39.851Z,94652.70
2019-05-21T05:33:10.362Z,94650.30
2019-05-21T05:35:40.765Z,94651.95
2019-05-21T05:38:13.612Z,94659.19
2019-05-21T05:40:58.918Z,94659.77
2019-05-21T05:43:29.434Z,94660.72
2019-05-21T05:46:03.133Z,94666.38
2019-05-21T05:48:35.298Z,94661.98
2019-05-21T05:51:07.073Z,94668.32
2019-05-21T05:53:57.237Z,94672.75
2019-05-21T05:56:28.787Z,94680.70
2019-05-21T05:59:02.892Z,94679.27
2019-05-21T06:01:34.388Z,94677.33
2019-05-21T06:04:07.781Z,94676.38
2019-05-21T06:06:38.306Z,94681.80
2019-05-21T06:09:08.802Z,94677.20
2019-05-21T06:11:39.902Z,94676.20
2019-05-21T06:14:12.423Z,94663.69
2019-05-21T06:16:42.865Z,94672.06
2019-05-21T06:19:15.049Z,94666.23
2019-05-21T06:21:54.151Z,94671.88
2019-05-21T06:24:24.625Z,94683.16
2019-05-21T06:26:58.156Z,94685.53
2019-05-21T06:29:28.789Z,94687.53
2019-05-21T06:31:59.767Z,94686.43
2019-05-21T06:34:30.614Z,94695.06
2019-05-21T06:37:01.102Z,94695.91
2019-05-21T06:39:31.533Z,94697.21
2019-05-21T06:42:02.164Z,94698.89
2019-05-21T06:44:32.759Z,94702.80
2019-05-21T06:47:03.367Z,94705.36
2019-05-21T06:49:39.490Z,94704.51
2019-05-21T06:52:10.190Z,94698.94
2019-05-21T06:54:40.891Z,94704.30
2019-05-21T06:57:11.477Z,94704.95
2019-05-21T06:59:42.424Z,94714.66
2019-05-21T07:02:13.631Z,94713.08
2019-05-21T07:04:44.086Z,94718.69
2019-05-21T07:07:17.726Z,94717.67
2019-05-21T07:09:54.607Z,94716.48
2019-05-21T07:12:25.147Z,94716.99
2019-05-21T07:14:55.814Z,94717.19
2019-05-21T07:17:26.583Z,94722.72
2019-05-21T07:19:57.239Z,94723.28
2019-05-21T07:22:31.138Z,94724.64
2019-05-21T07:25:04.028Z,94725.11
2019-05-21T07:27:36.091Z,94727.38
2019-05-21T07:30:06.618Z,94731.57
2019-05-21T07:32:37.499Z,94733.09
2019-05-21T07:35:08.288Z,94736.13
2019-05-21T07:37:39.025Z,94740.63
2019-05-21T07:40:09.753Z,94739.75
2019-05-21T07:42:40.299Z,94739.97
2019-05-21T07:45:10.786Z,94748.21
2019-05-21T07:47:42.630Z,94748.97
2019-05-21T07:50:15.917Z,94753.35
2019-05-21T07:52:49.079Z,94759.05
2019-05-21T07:55:19.678Z,94766.59
2019-05-21T07:57:50.259Z,94764.94
2019-05-21T08:00:21.152Z,94769.30
2019-05-21T08:02:59.094Z,94765.97
2019-05-21T08:05:29.641Z,94762.48
2019-05-21T08:08:02.925Z,94757.77
2019-05-21T08:10:34.206Z,94764.22
2019-05-21T08:13:04.901Z,94768.05
2019-05-21T08:15:41.031Z,94778.30
2019-05-21T08:18:12.244Z,94774.91
2019-05-21T08:20:42.833Z,94779.19
2019-05-21T08:23:13.299Z,94777.94
2019-05-21T08:25:43.731Z,94784.89
2019-05-21T08:29:00.261Z,94785.25
2019-05-21T08:31:34.638Z,94790.80
2019-05-21T08:34:05.099Z,94788.22
2019-05-21T08:36:35.915Z,94793.98
2019-05-21T08:39:10.518Z,94789.36
2019-05-21T08:41:41.645Z,94795.44
2019-05-21T08:44:15.024Z,94805.10
2019-05-21T08:46:45.483Z,94807.24
2019-05-21T08:49:16.130Z,94818.19
2019-05-21T08:51:46.617Z,94815.38
2019-05-21T08:54:19.750Z,94822.67
2019-05-21T08:56:50.333Z,94824.72
2019-05-21T08:59:21.939Z,94826.59
2019-05-21T09:01:59.126Z,94824.58
2019-05-21T09:04:45.228Z,94822.48
2019-05-21T09:07:07.034Z,94824.34
2019-05-21T09:09:50.251Z,94828.41
2019-05-21T09:12:13.598Z,94837.30
2019-05-21T09:14:44.413Z,94827.05
2019-05-21T09:17:18.058Z,94827.42
2019-05-21T09:19:51.602Z,94829.00
2019-05-21T09:22:24.573Z,94826.20
2019-05-21T09:25:04.237Z,94834.21
2019-05-21T09:27:35.383Z,94832.86
2019-05-21T09:30:13.622Z,94840.10
2019-05-21T09:32:46.334Z,94838.73
2019-05-21T09:35:30.674Z,94837.77
2019-05-21T09:38:04.364Z,94848.00
2019-05-21T09:40:38.167Z,94853.53
2019-05-21T09:43:08.929Z,94858.45
2019-05-21T09:45:47.559Z,94867.10
2019-05-21T09:48:24.474Z,94871.62
2019-05-21T09:50:54.968Z,94867.67
2019-05-21T09:53:27.011Z,94868.46
2019-05-21T09:55:59.287Z,94872.53
2019-05-21T09:58:42.583Z,94873.14
2019-05-21T10:01:19.055Z,94873.55
2019-05-21T10:03:55.026Z,94875.09
2019-05-21T10:06:26.499Z,94877.44
2019-05-21T10:08:59.729Z,94875.09
2019-05-21T10:11:34.194Z,94877.58
2019-05-21T10:14:04.705Z,94879.27
2019-05-21T10:16:43.623Z,94877.77
2019-05-21T10:19:14.212Z,94884.02
2019-05-21T10:21:46.584Z,94884.06
2019-05-21T10:24:17.267Z,94886.78
2019-05-21T10:26:51.164Z,94886.03
2019-05-21T10:29:23.094Z,94896.41
2019-05-21T10:31:58.260Z,94899.78
2019-05-21T10:34:28.747Z,94898.89
2019-05-21T10:36:59.242Z,94902.05
2019-05-21T10:39:45.158Z,94902.85
2019-05-21T10:42:17.561Z,94906.89
2019-05-21T10:44:57.077Z,94909.27
2019-05-21T10:47:29.162Z,94909.54
2019-05-21T10:50:00.033Z,94916.41
2019-05-21T10:52:53.081Z,94915.90
2019-05-21T10:55:24.091Z,94917.34
2019-05-21T10:57:54.915Z,94924.52
2019-05-21T11:00:26.103Z,94927.52
2019-05-21T11:03:10.729Z,94927.69
2019-05-21T11:05:43.979Z,94930.63
2019-05-21T11:08:24.383Z,94933.13
2019-05-21T11:10:48.089Z,94940.50
2019-05-21T11:13:19.264Z,94939.06
2019-05-21T11:15:51.678Z,94945.41
2019-05-21T11:18:22.199Z,94934.08
2019-05-21T11:20:53.073Z,94936.92
2019-05-21T11:23:25.012Z,94934.81
2019-05-21T11:25:56.606Z,94940.39
2019-05-21T11:28:28.173Z,94943.88
2019-05-21T11:31:04.972Z,94941.84
2019-05-21T11:33:39.096Z,94946.26
2019-05-21T11:36:12.508Z,94942.88
2019-05-21T11:38:46.101Z,94947.07
2019-05-21T11:41:16.720Z,94943.90
2019-05-21T11:44:00.407Z,94946.41
2019-05-21T11:46:33.875Z,94950.56
2019-05-21T11:49:04.512Z,94949.09
2019-05-21T11:51:35.170Z,94954.53
2019-05-21T11:54:08.981Z,94946.73
2019-05-21T11:56:42.253Z,94957.90
2019-05-21T11:59:15.586Z,94962.43
2019-05-21T12:01:47.205Z,94961.05
2019-05-21T12:04:19.198Z,94964.31
2019-05-21T12:07:03.515Z,94963.99
2019-05-21T12:09:35.242Z,94966.94
2019-05-21T12:12:05.726Z,94965.88
2019-05-21T12:14:36.122Z,94963.73
2019-05-21T12:17:06.576Z,94969.84
2019-05-21T12:19:37.142Z,94970.33
2019-05-21T12:22:10.192Z,94963.87
2019-05-21T12:24:47.255Z,94963.43
2019-05-21T12:27:21.144Z,94971.77
2019-05-21T12:29:51.621Z,94975.05
2019-05-21T12:32:22.262Z,94974.12
2019-05-21T12:34:54.159Z,94979.05
2019-05-21T12:37:29.339Z,94976.91
2019-05-21T12:40:00.145Z,94985.48
2019-05-21T12:42:30.755Z,94984.25
2019-05-21T12:45:04.020Z,94983.80
2019-05-21T12:47:34.483Z,94996.95
2019-05-21T12:50:05.397Z,94996.72
2019-05-21T12:52:37.327Z,95003.29
2019-05-21T12:55:08.045Z,95010.06
2019-05-21T12:57:38.480Z,95005.55
2019-05-21T13:00:13.075Z,95006.55
2019-05-21T13:02:43.520Z,95011.48
2019-05-21T13:05:20.151Z,95012.05
2019-05-21T13:07:52.109Z,95016.90
2019-05-21T13:10:26.904Z,95015.84
2019-05-21T13:12:56.592Z,95016.73
2019-05-21T13:15:27.063Z,95018.17
2019-05-21T13:17:58.905Z,95016.66
2019-05-21T13:20:29.813Z,95019.48
2019-05-21T13:23:01.082Z,95025.88
2019-05-21T13:25:35.164Z,95022.28
2019-05-21T13:28:08.088Z,95026.43
2019-05-21T13:30:43.146Z,95029.83
2019-05-21T13:33:23.650Z,95031.85
2019-05-21T13:35:54.152Z,95034.97
2019-05-21T13:38:29.295Z,95034.65
2019-05-21T13:41:05.829Z,95035.91
2019-05-21T13:43:36.619Z,95038.66
2019-05-21T13:46:07.902Z,95034.95
2019-05-21T13:48:47.111Z,95037.59
2019-05-21T13:51:17.333Z,95037.59
2019-05-21T13:53:49.537Z,95037.71
2019-05-21T13:56:21.389Z,95038.08
2019-05-21T13:58:54.114Z,95037.52
2019-05-21T14:01:39.924Z,95039.09
2019-05-21T14:03:59.259Z,95040.09
2019-05-21T14:06:35.905Z,95039.41
2019-05-21T14:09:08.477Z,95046.05
2019-05-21T14:11:46.826Z,95042.53
2019-05-21T14:14:20.615Z,95050.66
2019-05-21T14:16:51.006Z,95048.37
2019-05-21T14:19:21.646Z,95043.70
2019-05-21T14:21:53.609Z,95041.52
2019-05-21T14:24:24.043Z,95042.53
2019-05-21T14:27:00.136Z,95047.47
2019-05-21T14:29:30.722Z,95047.23
2019-05-21T14:32:06.352Z,95041.85
2019-05-21T14:34:58.426Z,95045.25
2019-05-21T14:37:16.841Z,95050.64
2019-05-21T14:39:47.319Z,95053.27
2019-05-21T14:42:18.187Z,95053.69
2019-05-21T14:44:48.679Z,95055.20
2019-05-21T14:47:22.590Z,95057.91
2019-05-21T14:49:54.824Z,95061.42
2019-05-21T14:52:28.644Z,95059.64
2019-05-21T14:54:59.151Z,95060.86
2019-05-21T14:57:38.666Z,95061.31
2019-05-21T15:00:19.213Z,95062.22
2019-05-21T15:02:52.448Z,95062.13
2019-05-21T15:05:24.353Z,95065.07
2019-05-21T15:07:54.919Z,95067.70
2019-05-21T15:10:27.967Z,95065.22
2019-05-21T15:13:06.146Z,95064.63
2019-05-21T15:15:36.852Z,95063.94
2019-05-21T15:18:08.428Z,95063.80
2019-05-21T15:20:52.179Z,95064.39
2019-05-21T15:23:22.694Z,95070.81
2019-05-21T15:25:55.210Z,95069.59
2019-05-21T15:28:33.298Z,95071.18
2019-05-21T15:31:18.133Z,95068.24
2019-05-21T15:33:53.146Z,95070.92
2019-05-21T15:36:25.658Z,95071.59
2019-05-21T15:39:26.040Z,95070.27
2019-05-21T15:41:44.399Z,95068.36
2019-05-21T15:44:14.797Z,95080.00
2019-05-21T15:46:50.055Z,95082.69
2019-05-21T15:49:35.507Z,95084.86
2019-05-21T15:51:57.166Z,95086.08
2019-05-21T15:54:41.422Z,95089.52
2019-05-21T15:57:18.055Z,95089.19
2019-05-21T16:00:00.628Z,95092.78
2019-05-21T16:02:36.869Z,95090.20
2019-05-21T16:05:09.288Z,95090.40
2019-05-21T16:07:39.756Z,95091.47
2019-05-21T16:10:33.777Z,95087.39
2019-05-21T16:13:07.803Z,95092.50
2019-05-21T16:15:38.297Z,95099.14
2019-05-21T16:18:09.120Z,95094.06
2019-05-21T16:20:42.504Z,95094.42
2019-05-21T16:23:16.414Z,95087.17
2019-05-21T16:25:47.107Z,95089.30
2019-05-21T16:28:17.556Z,95090.86
2019-05-21T16:30:56.127Z,95101.45
2019-05-21T16:33:29.809Z,95100.36
2019-05-21T16:36:00.314Z,95102.05
2019-05-21T16:38:34.112Z,95101.18
2019-05-21T16:41:06.232Z,95104.69
2019-05-21T16:46:55.654Z,95105.50
2019-05-21T16:49:28.828Z,95111.48
2019-05-21T16:52:03.869Z,95112.17
2019-05-21T16:54:39.420Z,95118.14
2019-05-21T16:57:09.893Z,95117.94
2019-05-21T16:59:41.530Z,95121.88
2019-05-21T17:02:15.355Z,95113.03
2019-05-21T17:04:59.093Z,95119.22
2019-05-21T17:07:32.296Z,95121.92
2019-05-21T17:10:04.274Z,95127.04
2019-05-21T17:12:36.971Z,95137.19
2019-05-21T17:15:08.270Z,95134.94
2019-05-21T17:17:38.777Z,95130.41
2019-05-21T17:20:16.534Z,95137.06
2019-05-21T17:22:50.683Z,95138.61
2019-05-21T17:25:25.846Z,95147.15
2019-05-21T17:28:05.224Z,95154.32
2019-05-21T17:30:36.319Z,95156.64
2019-05-21T17:33:08.358Z,95163.92
2019-05-21T17:35:42.256Z,95170.44
2019-05-21T17:38:13.155Z,95174.33
2019-05-21T17:40:43.786Z,95180.75
2019-05-21T17:43:20.270Z,95176.67
2019-05-21T17:46:00.732Z,95173.61
2019-05-21T17:48:40.350Z,95174.64
2019-05-21T17:51:12.428Z,95184.07
2019-05-21T17:53:51.773Z,95200.31
2019-05-21T17:56:22.591Z,95205.09
2019-05-21T17:58:53.083Z,95208.19
2019-05-21T18:01:34.369Z,95211.64
2019-05-21T18:04:08.481Z,95207.28
2019-05-21T18:06:52.698Z,95214.18
2019-05-21T18:09:22.521Z,95216.48
2019-05-21T18:11:53.106Z,95219.11
2019-05-21T18:14:24.293Z,95228.03
2019-05-21T18:16:54.778Z,95246.72
2019-05-21T18:19:25.181Z,95246.81
2019-05-21T18:21:57.205Z,95240.62
2019-05-21T18:24:27.772Z,95236.73
2019-05-21T18:26:58.636Z,95241.03
2019-05-21T18:29:31.483Z,95243.18
2019-05-21T18:32:02.210Z,95244.19
2019-05-21T18:34:35.246Z,95249.89
2019-05-21T18:37:09.247Z,95252.51
2019-05-21T18:39:42.918Z,95255.03
2019-05-21T18:42:34.763Z,95259.76
2019-05-21T18:45:06.624Z,95264.52
2019-05-21T18:47:38.972Z,95263.13
2019-05-21T18:50:11.152Z,95267.33
2019-05-21T18:52:45.082Z,95271.53
2019-05-21T18:55:16.810Z,95274.53
2019-05-21T18:57:47.812Z,95281.09
2019-05-21T19:00:18.281Z,95283.84
2019-05-21T19:02:49.085Z,95295.58
2019-05-21T19:05:25.522Z,95304.58
2019-05-21T19:08:05.121Z,95306.33
2019-05-21T19:10:35.714Z,95305.04
2019-05-21T19:13:09.154Z,95310.19
2019-05-21T19:15:53.678Z,95316.83
2019-05-21T19:18:24.311Z,95333.41
2019-05-21T19:21:00.220Z,95341.58
2019-05-21T19:23:35.373Z,95346.42
2019-05-21T19:26:09.776Z,95338.64
2019-05-21T19:28:45.518Z,95336.25
2019-05-21T19:31:16.202Z,95349.47
2019-05-21T19:33:46.917Z,95359.26
2019-05-21T19:36:17.664Z,95364.43
2019-05-21T19:38:54.218Z,95372.92
2019-05-21T19:41:25.222Z,95377.89
2019-05-21T19:44:07.767Z,95374.95
2019-05-21T19:46:38.226Z,95383.39
2019-05-21T19:49:15.309Z,95386.13
2019-05-21T19:51:48.419Z,95390.86
2019-05-21T19:54:21.899Z,95399.16
2019-05-21T19:56:55.474Z,95405.14
2019-05-21T19:59:28.976Z,95417.34
2019-05-21T20:02:03.101Z,95410.98
2019-05-21T20:04:35.278Z,95421.50
2019-05-21T20:07:07.776Z,95426.20
2019-05-21T20:09:39.505Z,95426.45
2019-05-21T20:12:19.384Z,95434.83
2019-05-21T20:14:50.382Z,95430.79
2019-05-21T20:17:21.155Z,95434.53
2019-05-21T20:19:56.174Z,95438.66
2019-05-21T20:22:30.638Z,95432.34
2019-05-21T20:25:04.700Z,95436.00
2019-05-21T20:27:38.032Z,95437.35
2019-05-21T20:30:16.173Z,95438.11
2019-05-21T20:32:56.738Z,95436.84
2019-05-21T20:35:33.408Z,95447.98
2019-05-21T20:38:06.465Z,95449.16
2019-05-21T20:40:38.138Z,95448.73
2019-05-21T20:43:22.180Z,95454.41
2019-05-21T20:45:52.966Z,95450.20
2019-05-21T20:48:27.183Z,95463.97
2019-05-21T20:50:59.098Z,95457.59
2019-05-21T20:53:35.442Z,95473.58
2019-05-21T20:56:07.645Z,95464.54
2019-05-21T20:58:38.282Z,95469.12
2019-05-21T21:01:12.589Z,95465.73
2019-05-21T21:03:43.736Z,95469.77
2019-05-21T21:06:14.676Z,95462.03
2019-05-21T21:08:45.095Z,95462.91
2019-05-21T21:11:18.380Z,95467.48
2019-05-21T21:14:15.273Z,95464.83
2019-05-21T21:16:37.794Z,95463.48
2019-05-21T21:19:08.247Z,95473.44
2019-05-21T21:21:42.075Z,95474.24
2019-05-21T21:24:12.644Z,95468.61
2019-05-21T21:26:46.712Z,95475.66
2019-05-21T21:29:17.156Z,95475.18
2019-05-21T21:31:47.847Z,95473.41
2019-05-21T21:34:18.465Z,95484.77
2019-05-21T21:36:53.291Z,95483.49
2019-05-21T21:39:29.789Z,95480.80
2019-05-21T21:42:00.705Z,95483.23
2019-05-21T21:44:45.548Z,95488.86
2019-05-21T21:47:18.055Z,95484.88
2019-05-21T21:49:49.176Z,95493.80
2019-05-21T21:52:19.852Z,95491.40
2019-05-21T21:54:57.674Z,95484.42
2019-05-21T21:57:28.092Z,95492.23
2019-05-21T21:59:58.617Z,95499.27
2019-05-21T22:02:31.041Z,95490.44
2019-05-21T22:05:03.322Z,95492.07
2019-05-21T22:07:39.091Z,95494.47
2019-05-21T22:10:09.623Z,95494.76
2019-05-21T22:12:40.115Z,95496.64
2019-05-21T22:15:16.302Z,95496.91
2019-05-21T22:17:49.534Z,95489.09
2019-05-21T22:20:19.961Z,95491.81
2019-05-21T22:22:54.992Z,95492.33
2019-05-21T22:25:25.486Z,95491.53
2019-05-21T22:28:05.313Z,95489.13
2019-05-21T22:30:37.174Z,95494.50
2019-05-21T22:33:07.674Z,95492.88
2019-05-21T22:35:38.093Z,95494.50
2019-05-21T22:38:08.797Z,95494.54
2019-05-21T22:40:39.894Z,95499.17
2019-05-21T22:43:11.176Z,95499.97
2019-05-21T22:45:49.135Z,95505.13
2019-05-21T22:48:19.926Z,95507.30
2019-05-21T22:50:50.699Z,95512.16
2019-05-21T22:53:21.225Z,95507.93
2019-05-21T22:55:53.239Z,95515.70
2019-05-21T22:58:25.300Z,95511.41
2019-05-21T23:00:57.831Z,95513.56
2019-05-21T23:03:28.258Z,95511.61
2019-05-21T23:05:58.827Z,95511.87
2019-05-21T23:08:29.846Z,95509.24
2019-05-21T23:11:00.899Z,95514.04
2019-05-21T23:13:33.285Z,95510.02
2019-05-21T23:16:04.896Z,95518.04
2019-05-21T23:18:53.296Z,95517.30
2019-05-21T23:21:25.448Z,95513.88
2019-05-21T23:23:56.241Z,95514.13
2019-05-21T23:26:27.333Z,95510.94
2019-05-21T23:29:01.785Z,95517.36
2019-05-21T23:31:35.521Z,95514.93
2019-05-21T23:34:06.874Z,95515.47
2019-05-21T23:36:37.822Z,95511.45
2019-05-21T23:39:15.476Z,95515.77
2019-05-21T23:41:46.099Z,95514.93
2019-05-21T23:44:17.225Z,95516.02
2019-05-21T23:46:56.238Z,95523.30
2019-05-21T23:49:26.748Z,95514.51
2019-05-21T23:51:57.130Z,95517.73
2019-05-21T23:54:27.563Z,95516.68
2019-05-21T23:56:59.582Z,95516.52
2019-05-21T23:59:30.680Z,95512.25
